createdAt,value
2022-10-23T00:01:15.775Z,5.30
2022-10-23T00:03:44.252Z,5.27
2022-10-23T00:06:14.509Z,5.60
2022-10-23T00:08:43.020Z,5.80
2022-10-23T00:11:12.853Z,5.33
2022-10-23T00:13:41.373Z,5.50
2022-10-23T00:16:10.618Z,5.97
2022-10-23T00:18:39.521Z,6.00
2022-10-23T00:21:08.563Z,6.10
2022-10-23T00:23:38.424Z,5.60
2022-10-23T00:26:08.150Z,6.27
2022-10-23T00:28:36.790Z,5.73
2022-10-23T00:31:05.791Z,5.67
2022-10-23T00:33:34.753Z,5.77
2022-10-23T00:36:05.393Z,5.90
2022-10-23T00:38:33.855Z,6.07
2022-10-23T00:41:03.851Z,6.20
2022-10-23T00:43:33.340Z,5.70
2022-10-23T00:46:01.977Z,6.20
2022-10-23T00:48:30.839Z,5.83
2022-10-23T00:50:59.334Z,5.87
2022-10-23T00:53:27.805Z,5.60
2022-10-23T00:55:57.799Z,5.40
2022-10-23T00:58:27.639Z,5.27
2022-10-23T01:00:57.021Z,5.97
2022-10-23T01:03:27.016Z,6.27
2022-10-23T01:05:57.887Z,5.73
2022-10-23T01:08:30.831Z,5.50
2022-10-23T01:11:02.412Z,5.67
2022-10-23T01:13:37.253Z,6.00
2022-10-23T01:16:10.369Z,6.27
2022-10-23T01:18:41.436Z,6.30
2022-10-23T01:21:13.292Z,6.23
2022-10-23T01:23:50.649Z,5.83
2022-10-23T01:26:29.212Z,6.37
2022-10-23T01:29:01.348Z,6.20
2022-10-23T01:31:32.479Z,5.47
2022-10-23T01:34:05.678Z,5.90
2022-10-23T01:36:34.717Z,5.50
2022-10-23T01:39:05.652Z,5.63
2022-10-23T01:41:36.398Z,5.97
2022-10-23T01:44:09.590Z,5.97
2022-10-23T01:46:38.064Z,5.80
2022-10-23T01:49:08.555Z,5.20
2022-10-23T01:51:38.517Z,5.67
2022-10-23T01:54:09.063Z,5.27
2022-10-23T01:56:39.067Z,5.37
2022-10-23T01:59:11.626Z,4.93
2022-10-23T02:01:41.921Z,5.03
2022-10-23T02:04:11.596Z,5.33
2022-10-23T02:06:40.146Z,5.27
2022-10-23T02:09:09.083Z,4.93
2022-10-23T02:11:41.286Z,4.93
2022-10-23T02:14:15.420Z,4.90
2022-10-23T02:16:45.599Z,4.83
2022-10-23T02:19:19.760Z,4.87
2022-10-23T02:21:52.035Z,4.77
2022-10-23T02:24:22.459Z,5.00
2022-10-23T02:26:53.918Z,4.60
2022-10-23T02:29:28.528Z,5.63
2022-10-23T02:31:57.057Z,4.47
2022-10-23T02:34:25.573Z,4.93
2022-10-23T02:36:54.261Z,4.57
2022-10-23T02:39:23.227Z,4.30
2022-10-23T02:41:53.971Z,4.47
2022-10-23T02:44:30.962Z,4.10
2022-10-23T02:47:07.200Z,4.23
2022-10-23T02:49:39.992Z,4.17
2022-10-23T02:52:12.412Z,4.10
2022-10-23T02:54:48.724Z,4.60
2022-10-23T02:57:21.064Z,3.90
2022-10-23T02:59:55.343Z,4.23
2022-10-23T03:02:26.175Z,3.90
2022-10-23T03:04:55.785Z,3.40
2022-10-23T03:07:24.482Z,3.60
2022-10-23T03:09:52.936Z,4.63
2022-10-23T03:12:21.480Z,4.63
2022-10-23T03:14:51.355Z,4.10
2022-10-23T03:17:19.884Z,4.57
2022-10-23T03:19:48.320Z,4.43
2022-10-23T03:22:16.789Z,3.97
2022-10-23T03:24:45.256Z,4.87
2022-10-23T03:27:13.777Z,4.50
2022-10-23T03:29:42.200Z,5.07
2022-10-23T03:32:12.066Z,4.87
2022-10-23T03:34:40.536Z,4.93
2022-10-23T03:37:09.021Z,5.00
2022-10-23T03:39:37.455Z,4.90
2022-10-23T03:42:06.104Z,4.90
2022-10-23T03:44:35.254Z,5.27
2022-10-23T03:47:03.746Z,5.20
2022-10-23T03:49:33.559Z,5.23
2022-10-23T03:52:02.058Z,5.40
2022-10-23T03:54:30.895Z,5.43
2022-10-23T03:56:59.365Z,5.57
2022-10-23T03:59:28.073Z,5.67
2022-10-23T04:01:56.786Z,5.97
2022-10-23T04:04:25.374Z,5.83
2022-10-23T04:06:55.307Z,6.17
2022-10-23T04:09:23.866Z,5.30
2022-10-23T04:11:52.384Z,5.60
2022-10-23T04:14:20.863Z,5.93
2022-10-23T04:16:49.335Z,5.40
2022-10-23T04:19:18.330Z,5.73
2022-10-23T04:21:46.999Z,6.03
2022-10-23T04:24:16.909Z,5.33
2022-10-23T04:26:45.391Z,5.60
2022-10-23T04:29:13.854Z,5.60
2022-10-23T04:31:42.299Z,5.43
2022-10-23T04:34:10.786Z,5.47
2022-10-23T04:36:39.268Z,5.53
2022-10-23T04:39:07.748Z,5.80
2022-10-23T04:41:39.025Z,5.90
2022-10-23T04:44:07.467Z,5.47
2022-10-23T04:46:35.980Z,5.37
2022-10-23T04:49:04.450Z,5.67
2022-10-23T04:51:32.906Z,5.97
2022-10-23T04:54:01.423Z,5.30
2022-10-23T04:56:29.960Z,5.27
2022-10-23T04:58:59.879Z,5.40
2022-10-23T05:01:28.554Z,5.03
2022-10-23T05:03:57.287Z,5.53
2022-10-23T05:06:25.736Z,5.60
2022-10-23T05:08:54.280Z,5.60
2022-10-23T05:11:22.781Z,5.53
2022-10-23T05:13:51.230Z,5.73
2022-10-23T05:16:29.069Z,6.17
2022-10-23T05:18:57.744Z,6.47
2022-10-23T05:21:28.309Z,5.73
2022-10-23T05:23:57.451Z,5.70
2022-10-23T05:26:25.992Z,6.43
2022-10-23T05:28:54.423Z,6.13
2022-10-23T05:31:24.920Z,5.97
2022-10-23T05:33:54.534Z,5.63
2022-10-23T05:36:23.756Z,5.03
2022-10-23T05:38:52.448Z,4.93
2022-10-23T05:41:21.053Z,5.07
2022-10-23T05:43:49.687Z,5.03
2022-10-23T05:46:18.148Z,5.00
2022-10-23T05:48:48.064Z,5.80
2022-10-23T05:51:21.181Z,5.57
2022-10-23T05:53:49.768Z,5.47
2022-10-23T05:56:18.313Z,5.40
2022-10-23T05:58:47.107Z,5.93
2022-10-23T06:01:18.203Z,5.43
2022-10-23T06:03:48.191Z,5.83
2022-10-23T06:06:16.674Z,6.33
2022-10-23T06:08:45.592Z,5.17
2022-10-23T06:11:16.354Z,5.50
2022-10-23T06:13:45.136Z,5.87
2022-10-23T06:16:14.413Z,6.07
2022-10-23T06:18:43.234Z,5.73
2022-10-23T06:21:13.054Z,5.57
2022-10-23T06:23:42.138Z,6.00
2022-10-23T06:26:12.589Z,6.03
2022-10-23T06:28:41.032Z,5.77
2022-10-23T06:31:10.207Z,5.40
2022-10-23T06:33:38.795Z,5.73
2022-10-23T06:36:10.349Z,5.53
2022-10-23T06:38:40.584Z,6.40
2022-10-23T06:41:09.898Z,5.77
2022-10-23T06:43:38.384Z,6.17
2022-10-23T06:46:07.044Z,6.00
2022-10-23T06:48:35.669Z,6.10
2022-10-23T06:51:07.165Z,6.17
2022-10-23T06:53:35.805Z,6.17
2022-10-23T06:56:06.208Z,5.67
2022-10-23T06:58:35.368Z,5.70
2022-10-23T07:01:04.438Z,5.50
2022-10-23T07:03:34.316Z,6.37
2022-10-23T07:06:03.163Z,5.70
2022-10-23T07:08:31.650Z,6.20
2022-10-23T07:11:00.084Z,5.67
2022-10-23T07:13:29.968Z,6.10
2022-10-23T07:15:58.491Z,5.97
2022-10-23T07:18:27.015Z,5.63
2022-10-23T07:20:59.585Z,6.07
2022-10-23T07:23:28.403Z,6.00
2022-10-23T07:25:56.836Z,6.30
2022-10-23T07:28:25.423Z,6.27
2022-10-23T07:30:59.669Z,6.57
2022-10-23T07:33:28.259Z,6.37
2022-10-23T07:35:56.728Z,5.90
2022-10-23T07:38:25.208Z,5.90
2022-10-23T07:40:53.778Z,5.90
2022-10-23T07:43:22.329Z,6.43
2022-10-23T07:45:51.220Z,6.37
2022-10-23T07:48:21.911Z,5.60
2022-10-23T07:50:50.362Z,5.77
2022-10-23T07:53:19.718Z,6.10
2022-10-23T07:55:54.086Z,6.17
2022-10-23T07:58:22.819Z,6.53
2022-10-23T08:00:55.736Z,6.47
2022-10-23T08:03:25.619Z,6.57
2022-10-23T08:05:54.699Z,5.73
2022-10-23T08:08:23.211Z,6.50
2022-10-23T08:10:52.510Z,5.87
2022-10-23T08:13:21.533Z,6.30
2022-10-23T08:15:50.637Z,5.93
2022-10-23T08:18:20.615Z,6.07
2022-10-23T08:20:52.465Z,5.80
2022-10-23T08:41:29.633Z,5.20
2022-10-23T08:44:39.779Z,5.63
2022-10-23T08:47:11.712Z,5.47
2022-10-23T08:53:28.656Z,6.50
2022-10-23T08:59:09.710Z,5.70
2022-10-23T09:02:05.727Z,5.40
2022-10-23T09:04:50.032Z,4.87
2022-10-23T09:07:26.806Z,4.77
2022-10-23T09:10:00.185Z,5.10
2022-10-23T09:12:30.512Z,4.83
2022-10-23T09:15:06.200Z,4.90
2022-10-23T09:17:35.504Z,4.43
2022-10-23T09:20:12.704Z,3.97
2022-10-23T09:22:41.252Z,4.23
2022-10-23T09:25:11.259Z,4.20
2022-10-23T09:27:40.014Z,4.20
2022-10-23T09:30:11.004Z,3.90
2022-10-23T09:32:39.974Z,3.83
2022-10-23T09:35:08.868Z,4.13
2022-10-23T09:37:37.691Z,3.60
2022-10-23T09:40:17.953Z,3.90
2022-10-23T09:42:53.688Z,3.90
2022-10-23T09:45:29.189Z,3.80
2022-10-23T09:48:14.595Z,3.70
2022-10-23T09:50:50.748Z,3.70
2022-10-23T09:53:27.844Z,3.33
2022-10-23T09:55:56.949Z,3.47
2022-10-23T09:58:29.211Z,3.70
2022-10-23T10:00:59.197Z,3.57
2022-10-23T10:03:27.777Z,3.00
2022-10-23T10:05:57.243Z,3.40
2022-10-23T10:08:29.928Z,3.25
2022-10-23T10:11:02.761Z,3.00
2022-10-23T10:13:42.364Z,2.63
2022-10-23T10:16:15.842Z,2.80
2022-10-23T10:18:47.741Z,2.60
2022-10-23T10:21:18.948Z,2.73
2022-10-23T10:23:50.690Z,2.97
2022-10-23T10:26:26.361Z,2.40
2022-10-23T10:29:04.525Z,2.45
2022-10-23T10:31:37.627Z,2.50
2022-10-23T10:34:12.812Z,2.42
2022-10-23T10:36:43.972Z,2.50
2022-10-23T10:39:16.311Z,2.63
2022-10-23T10:41:52.085Z,2.30
2022-10-23T10:44:35.559Z,2.67
2022-10-23T10:47:08.199Z,2.25
2022-10-23T10:49:40.844Z,2.00
2022-10-23T10:52:15.735Z,2.08
2022-10-23T10:54:51.929Z,2.05
2022-10-23T10:57:26.502Z,1.80
2022-10-23T10:59:56.524Z,2.00
2022-10-23T11:02:29.220Z,1.60
2022-10-23T11:05:02.160Z,1.67
2022-10-23T11:07:34.137Z,1.63
2022-10-23T11:10:05.384Z,1.58
2022-10-23T11:12:34.666Z,1.45
2022-10-23T11:15:03.181Z,1.85
2022-10-23T11:17:37.594Z,1.63
2022-10-23T11:20:12.522Z,1.60
2022-10-23T11:22:49.596Z,1.40
2022-10-23T11:25:35.555Z,1.50
2022-10-23T11:28:20.891Z,1.42
2022-10-23T11:30:59.424Z,1.85
2022-10-23T11:33:55.355Z,1.50
2022-10-23T11:36:41.691Z,1.42
2022-10-23T11:39:17.719Z,1.60
2022-10-23T11:41:50.715Z,1.40
2022-10-23T11:44:27.258Z,1.58
2022-10-23T11:47:02.991Z,1.30
2022-10-23T11:49:31.443Z,1.50
2022-10-23T11:52:05.511Z,1.90
2022-10-23T11:54:34.484Z,1.50
2022-10-23T11:57:13.169Z,1.70
2022-10-23T12:00:02.383Z,1.73
2022-10-23T12:02:32.982Z,1.90
2022-10-23T12:05:03.996Z,1.85
2022-10-23T12:07:35.123Z,1.80
2022-10-23T12:10:05.448Z,1.50
2022-10-23T12:12:35.343Z,1.80
2022-10-23T12:15:19.504Z,1.70
2022-10-23T12:17:48.395Z,1.33
2022-10-23T12:20:31.770Z,1.65
2022-10-23T12:23:11.756Z,1.80
2022-10-23T12:25:43.703Z,1.40
2022-10-23T12:28:20.773Z,1.80
2022-10-23T12:33:29.111Z,1.55
2022-10-23T12:36:05.774Z,1.45
2022-10-23T12:38:36.516Z,1.67
2022-10-23T12:41:08.532Z,1.50
2022-10-23T12:43:38.285Z,1.40
2022-10-23T12:46:12.043Z,1.70
2022-10-23T12:48:49.111Z,1.73
2022-10-23T12:51:22.629Z,1.52
2022-10-23T12:53:52.810Z,1.50
2022-10-23T12:56:22.032Z,1.60
2022-10-23T12:58:51.884Z,1.80
2022-10-23T13:01:27.749Z,1.70
2022-10-23T13:03:59.973Z,1.60
2022-10-23T13:06:28.625Z,1.50
2022-10-23T13:08:59.038Z,1.63
2022-10-23T13:11:27.635Z,1.50
2022-10-23T13:13:56.240Z,1.30
2022-10-23T13:16:25.613Z,1.70
2022-10-23T13:18:54.785Z,1.50
2022-10-23T13:21:26.609Z,1.42
2022-10-23T13:23:55.711Z,1.30
2022-10-23T13:26:31.928Z,1.50
2022-10-23T13:29:08.730Z,1.50
2022-10-23T13:31:49.689Z,1.48
2022-10-23T13:34:31.898Z,1.40
2022-10-23T13:37:02.600Z,1.35
2022-10-23T13:39:32.531Z,1.40
2022-10-23T13:42:13.011Z,1.65
2022-10-23T13:44:42.967Z,1.10
2022-10-23T13:47:14.088Z,1.40
2022-10-23T13:52:25.067Z,1.40
2022-10-23T13:54:53.575Z,1.65
2022-10-23T13:57:23.691Z,1.30
2022-10-23T13:59:52.143Z,1.38
2022-10-23T14:02:22.105Z,1.30
2022-10-23T14:04:51.108Z,1.50
2022-10-23T14:07:20.133Z,1.38
2022-10-23T14:09:50.570Z,1.30
2022-10-23T14:12:19.293Z,1.40
2022-10-23T14:14:52.195Z,1.38
2022-10-23T14:17:20.943Z,1.40
2022-10-23T14:19:50.337Z,1.48
2022-10-23T14:22:19.325Z,1.50
2022-10-23T14:24:48.092Z,1.40
2022-10-23T14:27:16.558Z,1.23
2022-10-23T14:29:44.984Z,1.40
2022-10-23T14:32:14.801Z,1.33
2022-10-23T14:34:45.884Z,1.30
2022-10-23T14:37:14.362Z,1.45
2022-10-23T14:39:47.479Z,1.50
2022-10-23T14:42:18.155Z,1.48
2022-10-23T14:44:46.631Z,1.40
2022-10-23T14:47:16.514Z,1.48
2022-10-23T14:49:46.003Z,1.42
2022-10-23T14:52:14.487Z,1.40
2022-10-23T14:54:43.079Z,1.33
2022-10-23T14:57:12.518Z,1.42
2022-10-23T14:59:40.939Z,1.40
2022-10-23T15:02:11.349Z,1.30
2022-10-23T15:04:41.423Z,1.20
2022-10-23T15:07:09.883Z,1.40
2022-10-23T15:09:39.687Z,1.40
2022-10-23T15:12:08.792Z,1.40
2022-10-23T15:14:37.669Z,1.50
2022-10-23T15:17:06.504Z,1.52
2022-10-23T15:19:35.145Z,1.30
2022-10-23T15:22:05.062Z,1.40
2022-10-23T15:24:33.500Z,1.30
2022-10-23T15:27:02.302Z,1.40
2022-10-23T15:29:31.189Z,1.35
2022-10-23T15:32:00.119Z,1.52
2022-10-23T15:34:29.631Z,1.40
2022-10-23T15:36:59.398Z,1.45
2022-10-23T15:39:33.713Z,1.50
2022-10-23T15:42:02.629Z,1.42
2022-10-23T15:44:32.122Z,1.55
2022-10-23T15:47:01.487Z,1.70
2022-10-23T15:49:30.607Z,1.40
2022-10-23T15:51:59.732Z,1.48
2022-10-23T15:54:32.667Z,1.40
2022-10-23T15:57:01.572Z,1.20
2022-10-23T15:59:30.835Z,1.27
2022-10-23T16:01:59.513Z,1.48
2022-10-23T16:04:28.655Z,1.27
2022-10-23T16:06:57.247Z,1.48
2022-10-23T16:09:25.666Z,1.58
2022-10-23T16:11:55.614Z,1.50
2022-10-23T16:14:24.132Z,1.30
2022-10-23T16:16:52.806Z,1.40
2022-10-23T16:19:21.709Z,1.42
2022-10-23T16:21:50.234Z,1.45
2022-10-23T16:24:18.980Z,1.10
2022-10-23T16:26:53.345Z,1.75
2022-10-23T16:29:25.856Z,1.52
2022-10-23T16:31:54.848Z,1.40
2022-10-23T16:34:23.951Z,1.50
2022-10-23T16:36:52.416Z,1.50
2022-10-23T16:39:21.412Z,1.33
2022-10-23T16:41:50.244Z,1.30
2022-10-23T16:44:19.571Z,1.40
2022-10-23T16:46:49.680Z,1.65
2022-10-23T16:49:18.234Z,1.80
2022-10-23T16:51:46.949Z,1.65
2022-10-23T16:54:15.707Z,1.80
2022-10-23T16:56:45.007Z,1.77
2022-10-23T16:59:13.502Z,1.88
2022-10-23T17:01:42.176Z,1.77
2022-10-23T17:04:12.385Z,1.60
2022-10-23T17:06:41.242Z,1.90
2022-10-23T17:09:09.964Z,1.67
2022-10-23T17:11:39.492Z,1.65
2022-10-23T17:14:09.180Z,1.70
2022-10-23T17:16:38.793Z,1.67
2022-10-23T17:19:16.000Z,1.70
2022-10-23T17:21:50.953Z,1.80
2022-10-23T17:24:19.383Z,1.80
2022-10-23T17:26:48.469Z,1.88
2022-10-23T17:29:16.973Z,2.00
2022-10-23T17:31:47.186Z,1.60
2022-10-23T17:34:16.447Z,2.20
2022-10-23T17:36:45.668Z,2.17
2022-10-23T17:39:18.289Z,1.98
2022-10-23T17:41:47.345Z,2.53
2022-10-23T17:44:19.064Z,2.17
2022-10-23T17:46:47.569Z,1.90
2022-10-23T17:49:15.988Z,1.83
2022-10-23T17:51:44.455Z,1.80
2022-10-23T17:54:14.627Z,1.92
2022-10-23T17:56:44.556Z,1.90
2022-10-23T17:59:17.548Z,1.80
2022-10-23T18:01:46.906Z,1.80
2022-10-23T18:04:16.647Z,1.80
2022-10-23T18:06:46.869Z,2.07
2022-10-23T18:09:15.412Z,2.03
2022-10-23T18:11:48.179Z,2.20
2022-10-23T18:14:17.889Z,1.90
2022-10-23T18:16:46.745Z,2.00
2022-10-23T18:19:15.381Z,2.27
2022-10-23T18:21:43.838Z,1.93
2022-10-23T18:24:12.300Z,1.77
2022-10-23T18:26:42.309Z,1.83
2022-10-23T18:29:13.688Z,2.00
2022-10-23T18:31:42.884Z,2.10
2022-10-23T18:34:15.419Z,2.20
2022-10-23T18:36:44.010Z,1.97
2022-10-23T18:39:14.279Z,1.87
2022-10-23T18:41:43.714Z,1.90
2022-10-23T18:44:16.336Z,2.40
2022-10-23T18:46:44.822Z,1.90
2022-10-23T18:49:13.292Z,2.20
2022-10-23T18:51:41.786Z,2.23
2022-10-23T18:54:11.212Z,2.23
2022-10-23T18:56:39.926Z,2.30
2022-10-23T18:59:09.283Z,2.23
2022-10-23T19:01:39.285Z,2.53
2022-10-23T19:04:07.984Z,2.17
2022-10-23T19:06:37.358Z,2.60
2022-10-23T19:09:08.005Z,2.43
2022-10-23T19:11:37.043Z,2.30
2022-10-23T19:14:06.282Z,2.50
2022-10-23T19:16:37.038Z,2.40
2022-10-23T19:19:09.023Z,2.17
2022-10-23T19:21:38.945Z,2.60
2022-10-23T19:24:09.745Z,2.63
2022-10-23T19:26:39.384Z,2.70
2022-10-23T19:29:08.572Z,2.60
2022-10-23T19:31:38.212Z,2.73
2022-10-23T19:34:08.060Z,3.00
2022-10-23T19:36:36.507Z,2.67
2022-10-23T19:39:05.811Z,3.27
2022-10-23T19:41:34.326Z,3.13
2022-10-23T19:44:02.727Z,2.97
2022-10-23T19:46:31.202Z,3.13
2022-10-23T19:48:59.603Z,3.27
2022-10-23T19:51:29.753Z,2.87
2022-10-23T19:54:00.255Z,2.80
2022-10-23T19:56:29.226Z,3.27
2022-10-23T19:58:57.667Z,2.73
2022-10-23T20:06:44.912Z,3.83
2022-10-23T20:09:13.368Z,3.27
2022-10-23T20:11:41.979Z,3.30
2022-10-23T20:14:10.535Z,3.33
2022-10-23T20:16:40.028Z,3.20
2022-10-23T20:19:10.071Z,2.90
2022-10-23T20:21:38.685Z,2.97
2022-10-23T20:24:09.149Z,2.87
2022-10-23T20:26:37.672Z,3.00
2022-10-23T20:29:06.273Z,3.00
2022-10-23T20:31:36.424Z,3.00
2022-10-23T20:34:05.292Z,3.17
2022-10-23T20:36:34.981Z,2.83
2022-10-23T20:39:05.179Z,3.00
2022-10-23T20:41:37.252Z,3.43
2022-10-23T20:44:06.048Z,3.10
2022-10-23T20:46:34.773Z,2.83
2022-10-23T20:49:03.510Z,3.00
2022-10-23T20:51:32.250Z,2.87
2022-10-23T20:54:00.817Z,2.70
2022-10-23T20:56:31.248Z,3.20
2022-10-23T20:59:01.505Z,3.27
2022-10-23T21:01:30.883Z,3.03
2022-10-23T21:04:00.097Z,3.37
2022-10-23T21:06:33.919Z,3.07
2022-10-23T21:09:06.689Z,3.40
2022-10-23T21:11:35.846Z,3.23
2022-10-23T21:14:05.872Z,3.17
2022-10-23T21:16:35.341Z,3.10
2022-10-23T21:19:04.752Z,3.00
2022-10-23T21:21:34.205Z,3.27
2022-10-23T21:24:03.184Z,3.03
2022-10-23T21:26:32.606Z,3.23
2022-10-23T21:29:17.311Z,2.80
2022-10-23T21:31:52.816Z,3.23
2022-10-23T21:34:21.283Z,2.80
2022-10-23T21:39:38.287Z,2.73
2022-10-23T21:42:06.835Z,2.63
2022-10-23T21:44:35.571Z,3.20
2022-10-23T21:47:05.740Z,3.03
2022-10-23T21:49:34.328Z,2.90
2022-10-23T21:52:03.089Z,2.90
2022-10-23T21:54:31.546Z,2.60
2022-10-23T21:57:00.084Z,2.63
2022-10-23T21:59:31.609Z,2.60
2022-10-23T22:02:01.795Z,2.70
2022-10-23T22:04:31.846Z,2.47
2022-10-23T22:07:00.362Z,2.00
2022-10-23T22:09:28.861Z,2.50
2022-10-23T22:11:57.449Z,2.10
2022-10-23T22:14:25.868Z,2.57
2022-10-23T22:16:54.453Z,2.37
2022-10-23T22:19:23.983Z,2.30
2022-10-23T22:21:53.841Z,2.20
2022-10-23T22:24:22.349Z,2.33
2022-10-23T22:26:51.691Z,2.20
2022-10-23T22:29:21.514Z,2.33
2022-10-23T22:31:50.327Z,2.33
2022-10-23T22:34:27.171Z,2.10
2022-10-23T22:37:10.871Z,2.20
2022-10-23T22:39:39.603Z,2.30
2022-10-23T22:42:08.102Z,2.20
2022-10-23T22:44:36.525Z,2.40
2022-10-23T22:47:05.107Z,2.10
2022-10-23T22:49:33.711Z,2.10
2022-10-23T22:52:02.292Z,2.20
2022-10-23T22:54:32.274Z,2.00
2022-10-23T22:57:00.845Z,1.93
2022-10-23T22:59:29.370Z,1.90
2022-10-23T23:01:57.818Z,2.00
2022-10-23T23:04:42.535Z,2.20
2022-10-23T23:07:12.273Z,1.97
2022-10-23T23:09:42.805Z,1.93
2022-10-23T23:12:12.309Z,1.90
2022-10-23T23:14:40.993Z,2.00
2022-10-23T23:17:09.881Z,1.83
2022-10-23T23:19:38.333Z,1.83
2022-10-23T23:22:06.889Z,1.90
2022-10-23T23:24:35.327Z,2.10
2022-10-23T23:27:05.192Z,2.17
2022-10-23T23:29:33.698Z,2.27
2022-10-23T23:32:02.246Z,2.00
2022-10-23T23:34:31.015Z,2.00
2022-10-23T23:36:59.491Z,2.10
2022-10-23T23:39:28.614Z,2.10
2022-10-23T23:41:57.278Z,2.20
2022-10-23T23:44:27.135Z,2.07
2022-10-23T23:46:55.916Z,1.90
2022-10-23T23:49:24.396Z,2.30
2022-10-23T23:51:52.996Z,2.17
2022-10-23T23:54:21.426Z,2.43
2022-10-23T23:56:49.881Z,1.90
2022-10-23T23:59:18.346Z,2.00
